createdAt,value
2023-04-29T00:02:31.996Z,11.30
2023-04-29T00:07:54.945Z,11.20
2023-04-29T00:10:22.044Z,11.30
2023-04-29T00:12:55.112Z,11.40
2023-04-29T00:18:12.203Z,11.40
2023-04-29T00:20:39.623Z,11.40
2023-04-29T00:23:07.725Z,11.40
2023-04-29T00:25:35.285Z,11.30
2023-04-29T00:30:56.401Z,11.20
2023-04-29T00:33:27.257Z,11.20
2023-04-29T00:35:53.929Z,11.10
2023-04-29T00:41:12.191Z,11.10
2023-04-29T00:43:38.866Z,11.00
2023-04-29T00:46:05.565Z,10.90
2023-04-29T00:48:33.948Z,10.80
2023-04-29T00:51:00.567Z,10.80
2023-04-29T00:53:27.376Z,10.80
2023-04-29T00:55:54.794Z,10.80
2023-04-29T00:58:22.706Z,10.70
2023-04-29T01:00:49.986Z,10.60
2023-04-29T01:03:16.939Z,10.50
2023-04-29T01:05:48.071Z,10.50
2023-04-29T01:08:52.719Z,10.30
2023-04-29T01:11:23.836Z,10.20
2023-04-29T01:13:51.725Z,10.20
2023-04-29T01:16:52.987Z,10.20
2023-04-29T01:19:47.956Z,10.30
2023-04-29T01:22:15.443Z,10.40
2023-04-29T01:24:42.131Z,10.40
2023-04-29T01:27:36.826Z,10.40
2023-04-29T01:30:21.287Z,10.30
2023-04-29T01:33:02.349Z,10.30
2023-04-29T01:35:50.060Z,10.20
2023-04-29T01:38:31.078Z,10.10
2023-04-29T01:41:12.634Z,10.10
2023-04-29T01:43:40.201Z,10.00
2023-04-29T01:46:11.735Z,9.80
2023-04-29T01:48:39.315Z,9.80
2023-04-29T01:51:07.144Z,9.70
2023-04-29T01:53:33.877Z,9.60
2023-04-29T01:56:00.577Z,9.50
2023-04-29T01:58:30.220Z,9.50
2023-04-29T02:00:56.942Z,9.60
2023-04-29T02:03:23.921Z,9.60
2023-04-29T02:05:50.710Z,9.50
2023-04-29T02:08:18.260Z,9.40
2023-04-29T02:10:59.083Z,9.30
2023-04-29T02:13:26.837Z,9.10
2023-04-29T02:15:53.573Z,9.00
2023-04-29T02:18:20.728Z,8.90
2023-04-29T02:20:47.521Z,8.90
2023-04-29T02:23:14.145Z,8.80
2023-04-29T02:25:40.799Z,8.90
2023-04-29T02:28:07.527Z,9.00
2023-04-29T02:30:41.432Z,9.10
2023-04-29T02:33:08.826Z,9.20
2023-04-29T02:35:35.946Z,9.20
2023-04-29T02:38:08.842Z,9.20
2023-04-29T02:40:40.655Z,9.30
2023-04-29T02:43:07.657Z,9.40
2023-04-29T02:45:34.393Z,9.40
2023-04-29T02:48:01.176Z,9.40
2023-04-29T02:50:28.788Z,9.50
2023-04-29T02:52:55.762Z,9.50
2023-04-29T02:55:22.587Z,9.50
2023-04-29T02:57:49.303Z,9.40
2023-04-29T03:00:16.117Z,9.40
2023-04-29T03:02:43.163Z,9.40
2023-04-29T03:05:13.218Z,9.40
2023-04-29T03:07:39.860Z,9.40
2023-04-29T03:10:09.938Z,9.40
2023-04-29T03:12:37.036Z,9.50
2023-04-29T03:15:08.023Z,9.50
2023-04-29T03:17:34.833Z,9.50
2023-04-29T03:20:01.732Z,9.60
2023-04-29T03:22:28.553Z,9.60
2023-04-29T03:24:55.324Z,9.60
2023-04-29T03:27:22.193Z,9.70
2023-04-29T03:29:52.041Z,9.70
2023-04-29T03:32:18.884Z,9.80
2023-04-29T03:34:45.621Z,9.80
2023-04-29T03:37:12.743Z,9.90
2023-04-29T03:39:39.389Z,10.00
2023-04-29T03:42:08.535Z,10.00
2023-04-29T03:44:35.229Z,10.10
2023-04-29T03:47:04.993Z,10.20
2023-04-29T03:49:31.653Z,10.20
2023-04-29T03:51:59.446Z,10.30
2023-04-29T03:54:26.122Z,10.30
2023-04-29T03:56:52.790Z,10.30
2023-04-29T03:59:19.594Z,10.30
2023-04-29T04:01:46.252Z,10.30
2023-04-29T04:04:13.417Z,10.30
2023-04-29T04:06:40.118Z,10.30
2023-04-29T04:09:07.696Z,10.30
2023-04-29T04:11:34.358Z,10.40
2023-04-29T04:14:01.290Z,10.40
2023-04-29T04:16:28.045Z,10.40
2023-04-29T04:18:54.736Z,10.40
2023-04-29T04:21:21.356Z,10.50
2023-04-29T04:23:48.818Z,10.60
2023-04-29T04:26:15.558Z,10.60
2023-04-29T04:28:42.276Z,10.70
2023-04-29T04:31:09.004Z,10.70
2023-04-29T04:33:36.328Z,10.70
2023-04-29T04:36:03.159Z,10.70
2023-04-29T04:38:47.956Z,10.70
2023-04-29T04:41:14.670Z,10.70
2023-04-29T04:43:41.390Z,10.90
2023-04-29T04:46:12.839Z,11.00
2023-04-29T04:48:39.576Z,11.00
2023-04-29T04:51:13.413Z,11.10
2023-04-29T04:53:40.985Z,11.20
2023-04-29T04:56:08.343Z,11.20
2023-04-29T04:58:34.959Z,11.30
2023-04-29T05:01:02.057Z,11.40
2023-04-29T05:03:29.073Z,11.40
2023-04-29T05:05:57.341Z,11.50
2023-04-29T05:08:24.363Z,11.50
2023-04-29T05:10:54.555Z,11.50
2023-04-29T05:13:21.411Z,11.60
2023-04-29T05:15:48.131Z,11.70
2023-04-29T05:18:14.842Z,11.80
2023-04-29T05:20:44.576Z,11.90
2023-04-29T05:23:11.361Z,12.00
2023-04-29T05:25:38.253Z,12.10
2023-04-29T05:28:05.575Z,12.10
2023-04-29T05:30:32.391Z,12.10
2023-04-29T05:32:59.190Z,12.20
2023-04-29T05:35:26.494Z,12.30
2023-04-29T05:37:54.614Z,12.40
2023-04-29T05:40:24.402Z,12.50
2023-04-29T05:42:51.559Z,12.60
2023-04-29T05:45:18.272Z,12.70
2023-04-29T05:47:45.046Z,12.80
2023-04-29T05:50:11.906Z,13.00
2023-04-29T05:52:41.969Z,13.20
2023-04-29T05:55:09.054Z,13.50
2023-04-29T05:57:35.760Z,13.90
2023-04-29T06:00:04.174Z,14.30
2023-04-29T06:02:31.104Z,14.70
2023-04-29T06:04:58.137Z,15.20
2023-04-29T06:07:26.608Z,15.40
2023-04-29T06:09:55.128Z,15.30
2023-04-29T06:12:21.986Z,14.90
2023-04-29T06:14:49.034Z,14.50
2023-04-29T06:17:15.928Z,14.30
2023-04-29T06:19:42.545Z,14.20
2023-04-29T06:22:11.413Z,14.10
2023-04-29T06:24:38.313Z,14.10
2023-04-29T06:27:05.274Z,14.00
2023-04-29T06:29:31.909Z,14.00
2023-04-29T06:31:58.541Z,14.00
2023-04-29T06:34:25.236Z,13.90
2023-04-29T06:36:51.968Z,13.90
2023-04-29T06:39:18.869Z,13.80
2023-04-29T06:41:47.144Z,13.90
2023-04-29T06:44:13.863Z,13.90
2023-04-29T06:46:41.985Z,14.00
2023-04-29T06:49:08.633Z,13.80
2023-04-29T06:51:37.393Z,13.70
2023-04-29T06:54:04.586Z,13.70
2023-04-29T06:56:31.563Z,13.70
2023-04-29T06:58:58.209Z,13.70
2023-04-29T07:01:24.931Z,13.80
2023-04-29T07:03:54.262Z,14.00
2023-04-29T07:06:21.198Z,14.10
2023-04-29T07:08:47.863Z,14.30
2023-04-29T07:11:14.504Z,14.40
2023-04-29T07:13:41.334Z,14.50
2023-04-29T07:16:17.014Z,14.70
2023-04-29T07:18:44.108Z,14.90
2023-04-29T07:21:10.766Z,15.10
2023-04-29T07:23:37.464Z,15.30
2023-04-29T07:26:15.834Z,15.30
2023-04-29T07:28:43.478Z,15.20
2023-04-29T07:31:11.862Z,15.20
2023-04-29T07:33:38.752Z,15.30
2023-04-29T07:36:07.277Z,15.20
2023-04-29T07:38:34.672Z,15.20
2023-04-29T07:41:01.547Z,15.20
2023-04-29T07:43:30.245Z,15.10
2023-04-29T07:45:56.962Z,15.00
2023-04-29T07:48:23.724Z,15.00
2023-04-29T07:50:50.720Z,15.10
2023-04-29T07:53:18.136Z,15.10
2023-04-29T07:55:47.951Z,14.80
2023-04-29T07:58:14.655Z,14.80
2023-04-29T08:00:41.352Z,14.80
2023-04-29T08:03:09.210Z,14.70
2023-04-29T08:05:36.614Z,14.60
2023-04-29T08:08:03.520Z,14.50
2023-04-29T08:10:32.251Z,14.50
2023-04-29T08:12:59.149Z,14.50
2023-04-29T08:15:26.267Z,14.60
2023-04-29T08:17:54.168Z,14.50
2023-04-29T08:20:20.925Z,14.40
2023-04-29T08:22:47.954Z,14.30
2023-04-29T08:25:14.652Z,14.20
2023-04-29T08:27:43.558Z,14.00
2023-04-29T08:30:10.475Z,14.00
2023-04-29T08:32:37.248Z,14.00
2023-04-29T08:35:04.218Z,14.00
2023-04-29T08:37:30.836Z,14.00
2023-04-29T08:40:00.487Z,14.00
2023-04-29T08:42:39.131Z,13.90
2023-04-29T08:45:06.471Z,13.90
2023-04-29T08:47:34.777Z,13.90
2023-04-29T08:50:05.938Z,13.90
2023-04-29T08:52:34.804Z,13.80
2023-04-29T08:55:02.927Z,13.80
2023-04-29T08:57:31.168Z,13.80
2023-04-29T09:00:01.170Z,13.70
2023-04-29T09:02:28.938Z,13.70
2023-04-29T09:05:04.757Z,13.70
2023-04-29T09:07:36.219Z,13.70
2023-04-29T09:10:05.027Z,13.80
2023-04-29T09:12:34.645Z,13.90
2023-04-29T09:15:01.303Z,14.10
2023-04-29T09:17:43.126Z,14.40
2023-04-29T09:20:22.300Z,14.60
2023-04-29T09:22:51.021Z,14.60
2023-04-29T09:25:17.802Z,14.50
2023-04-29T09:27:47.765Z,14.50
2023-04-29T09:30:16.460Z,14.40
2023-04-29T09:32:45.083Z,14.40
2023-04-29T09:35:28.293Z,14.50
2023-04-29T09:38:12.155Z,14.30
2023-04-29T09:40:54.381Z,14.10
2023-04-29T09:43:29.189Z,14.10
2023-04-29T09:46:01.005Z,14.10
2023-04-29T09:48:33.875Z,14.10
2023-04-29T09:51:03.110Z,14.10
2023-04-29T09:53:33.427Z,14.10
2023-04-29T09:56:02.504Z,14.10
2023-04-29T09:58:38.461Z,14.00
2023-04-29T10:01:05.821Z,14.10
2023-04-29T10:03:38.096Z,14.10
2023-04-29T10:06:07.018Z,14.10
2023-04-29T10:08:34.600Z,14.10
2023-04-29T10:11:03.379Z,14.00
2023-04-29T10:13:30.586Z,14.10
2023-04-29T10:16:20.580Z,14.10
2023-04-29T10:18:56.014Z,14.10
2023-04-29T10:21:32.101Z,14.30
2023-04-29T10:23:59.929Z,14.40
2023-04-29T10:26:29.087Z,14.40
2023-04-29T10:29:00.250Z,14.40
2023-04-29T10:31:30.354Z,14.40
2023-04-29T10:34:02.657Z,14.30
2023-04-29T10:36:31.341Z,14.30
2023-04-29T10:39:00.958Z,14.30
2023-04-29T10:41:33.591Z,14.30
2023-04-29T10:44:04.152Z,14.30
2023-04-29T10:46:37.136Z,14.20
2023-04-29T10:49:06.385Z,14.30
2023-04-29T10:51:41.835Z,14.30
2023-04-29T10:54:25.528Z,14.20
2023-04-29T10:56:54.211Z,14.10
2023-04-29T10:59:42.733Z,14.10
2023-04-29T11:02:13.475Z,14.20
2023-04-29T11:05:10.796Z,14.10
2023-04-29T11:07:41.587Z,13.90
2023-04-29T11:10:16.924Z,13.80
2023-04-29T11:12:43.593Z,13.60
2023-04-29T11:15:11.660Z,13.50
2023-04-29T11:17:38.718Z,13.70
2023-04-29T11:20:12.529Z,13.80
2023-04-29T11:22:40.040Z,13.90
2023-04-29T11:25:07.512Z,14.00
2023-04-29T11:27:39.869Z,14.10
2023-04-29T11:30:12.292Z,14.30
2023-04-29T11:32:40.871Z,14.60
2023-04-29T11:35:11.062Z,14.80
2023-04-29T11:37:40.275Z,15.10
2023-04-29T11:40:08.050Z,15.50
2023-04-29T11:42:37.510Z,15.90
2023-04-29T11:45:06.261Z,16.50
2023-04-29T11:47:36.823Z,17.20
2023-04-29T11:50:08.874Z,18.00
2023-04-29T11:52:37.831Z,18.30
2023-04-29T11:55:05.865Z,18.30
2023-04-29T11:57:32.996Z,18.30
2023-04-29T12:00:05.702Z,18.30
2023-04-29T12:02:34.944Z,18.30
2023-04-29T12:05:07.651Z,18.50
2023-04-29T12:07:36.319Z,19.10
2023-04-29T12:10:03.285Z,19.50
2023-04-29T12:12:34.932Z,20.20
2023-04-29T12:15:03.586Z,20.90
2023-04-29T12:17:30.464Z,21.10
2023-04-29T12:19:57.693Z,20.90
2023-04-29T12:22:35.027Z,20.60
2023-04-29T12:25:05.929Z,20.70
2023-04-29T12:33:29.150Z,21.10
2023-04-29T12:35:58.281Z,21.50
2023-04-29T12:38:29.767Z,21.90
2023-04-29T12:40:59.488Z,21.80
2023-04-29T12:43:35.501Z,21.30
2023-04-29T12:46:09.455Z,20.80
2023-04-29T12:48:41.706Z,20.30
2023-04-29T12:51:12.807Z,19.70
2023-04-29T12:53:42.668Z,19.50
2023-04-29T12:56:14.697Z,19.30
2023-04-29T12:58:43.843Z,19.20
2023-04-29T13:01:11.749Z,19.10
2023-04-29T13:03:38.767Z,19.00
2023-04-29T13:06:06.305Z,18.80
2023-04-29T13:08:42.211Z,18.60
2023-04-29T13:11:08.923Z,18.20
2023-04-29T13:13:35.535Z,17.90
2023-04-29T13:16:02.437Z,17.50
2023-04-29T13:18:29.166Z,17.30
2023-04-29T13:20:57.922Z,17.40
2023-04-29T13:23:24.608Z,17.40
2023-04-29T13:25:55.835Z,17.50
2023-04-29T13:28:22.654Z,17.60
2023-04-29T13:30:50.864Z,17.80
2023-04-29T13:33:18.540Z,18.10
2023-04-29T13:35:46.980Z,18.40
2023-04-29T13:38:14.266Z,18.40
2023-04-29T13:40:46.877Z,18.40
2023-04-29T13:43:20.906Z,18.20
2023-04-29T13:45:55.958Z,18.00
2023-04-29T13:48:45.283Z,17.70
2023-04-29T13:56:55.036Z,16.90
2023-04-29T13:59:41.487Z,16.90
2023-04-29T14:04:32.779Z,16.80
2023-04-29T14:06:59.616Z,16.50
2023-04-29T14:09:28.573Z,16.30
2023-04-29T14:12:01.199Z,16.00
2023-04-29T14:14:27.843Z,15.80
2023-04-29T14:16:55.257Z,15.50
2023-04-29T14:19:21.914Z,15.20
2023-04-29T14:21:48.547Z,15.10
2023-04-29T14:24:17.724Z,15.10
2023-04-29T14:26:44.381Z,15.10
2023-04-29T14:29:11.349Z,15.10
2023-04-29T14:31:41.022Z,15.10
2023-04-29T14:34:07.664Z,15.10
2023-04-29T14:36:34.295Z,15.20
2023-04-29T14:39:04.266Z,15.20
2023-04-29T14:41:31.114Z,15.30
2023-04-29T14:43:57.801Z,15.40
2023-04-29T14:46:27.341Z,15.50
2023-04-29T14:48:54.081Z,15.60
2023-04-29T14:51:23.940Z,15.80
2023-04-29T14:53:55.320Z,16.00
2023-04-29T14:56:25.155Z,16.30
2023-04-29T14:58:51.868Z,16.60
2023-04-29T15:01:22.035Z,16.80
2023-04-29T15:03:48.964Z,16.80
2023-04-29T15:06:16.717Z,16.70
2023-04-29T15:08:43.466Z,16.70
2023-04-29T15:11:10.154Z,16.60
2023-04-29T15:13:38.430Z,16.50
2023-04-29T15:16:07.335Z,16.30
2023-04-29T15:18:34.049Z,16.10
2023-04-29T15:21:05.290Z,16.00
2023-04-29T15:23:37.509Z,15.80
2023-04-29T15:26:04.382Z,15.70
2023-04-29T15:28:32.931Z,15.50
2023-04-29T15:31:01.787Z,15.50
2023-04-29T15:33:30.956Z,15.50
2023-04-29T15:36:00.338Z,15.50
2023-04-29T15:38:27.086Z,15.60
2023-04-29T15:41:00.353Z,15.70
2023-04-29T15:43:28.078Z,15.70
2023-04-29T15:45:54.980Z,15.70
2023-04-29T15:48:22.324Z,15.60
2023-04-29T15:50:52.773Z,15.60
2023-04-29T15:53:19.519Z,15.50
2023-04-29T15:55:46.703Z,15.40
2023-04-29T15:58:13.424Z,15.20
2023-04-29T16:00:48.487Z,14.90
2023-04-29T16:03:15.368Z,14.70
2023-04-29T16:05:45.311Z,14.50
2023-04-29T16:08:12.085Z,14.40
2023-04-29T16:10:38.712Z,14.30
2023-04-29T16:13:05.506Z,14.20
2023-04-29T16:15:32.550Z,14.10
2023-04-29T16:18:00.544Z,14.00
2023-04-29T16:20:27.259Z,13.90
2023-04-29T16:22:58.541Z,13.90
2023-04-29T16:25:25.278Z,13.90
2023-04-29T16:27:53.104Z,13.90
2023-04-29T16:30:19.773Z,14.00
2023-04-29T16:32:54.603Z,14.00
2023-04-29T16:35:28.188Z,14.10
2023-04-29T16:37:57.922Z,14.10
2023-04-29T16:40:24.699Z,14.00
2023-04-29T16:42:53.250Z,14.00
2023-04-29T16:45:22.937Z,14.00
2023-04-29T16:47:50.634Z,13.90
2023-04-29T16:50:17.849Z,13.90
2023-04-29T16:52:44.658Z,13.90
2023-04-29T16:55:15.217Z,13.90
2023-04-29T16:57:43.664Z,13.90
2023-04-29T17:03:04.468Z,13.90
2023-04-29T17:05:34.810Z,14.00
2023-04-29T17:08:03.362Z,13.90
2023-04-29T17:10:31.597Z,13.80
2023-04-29T17:12:58.320Z,13.70
2023-04-29T17:15:24.932Z,13.60
2023-04-29T17:17:51.750Z,13.50
2023-04-29T17:20:18.560Z,13.40
2023-04-29T17:22:45.224Z,13.30
2023-04-29T17:25:14.746Z,13.30
2023-04-29T17:27:45.082Z,13.30
2023-04-29T17:30:12.509Z,13.20
2023-04-29T17:32:39.528Z,13.20
2023-04-29T17:35:08.499Z,13.20
2023-04-29T17:37:39.753Z,13.20
2023-04-29T17:40:07.361Z,13.20
2023-04-29T17:42:34.085Z,13.20
2023-04-29T17:45:00.771Z,13.20
2023-04-29T17:47:28.124Z,13.20
2023-04-29T17:49:56.292Z,13.30
2023-04-29T17:52:24.151Z,13.20
2023-04-29T17:54:50.819Z,13.20
2023-04-29T17:57:20.228Z,13.20
2023-04-29T17:59:50.615Z,13.10
2023-04-29T18:02:17.212Z,13.00
2023-04-29T18:04:47.319Z,13.00
2023-04-29T18:07:14.245Z,12.90
2023-04-29T18:09:44.723Z,12.90
2023-04-29T18:12:11.325Z,12.80
2023-04-29T18:23:16.462Z,12.70
2023-04-29T18:25:46.266Z,12.70
2023-04-29T18:28:23.556Z,12.60
2023-04-29T18:30:52.237Z,12.60
2023-04-29T18:33:19.024Z,12.60
2023-04-29T18:35:45.991Z,12.50
2023-04-29T18:38:22.861Z,12.50
2023-04-29T18:40:49.645Z,12.40
2023-04-29T18:43:19.047Z,12.40
2023-04-29T18:45:45.811Z,12.30
2023-04-29T18:48:13.002Z,12.40
2023-04-29T18:50:43.037Z,12.30
2023-04-29T18:53:09.763Z,12.30
2023-04-29T18:55:36.554Z,12.30
2023-04-29T18:58:04.119Z,12.40
2023-04-29T19:00:34.312Z,12.40
2023-04-29T19:03:01.038Z,12.40
2023-04-29T19:05:27.863Z,12.40
2023-04-29T19:07:56.410Z,12.30
2023-04-29T19:10:27.405Z,12.30
2023-04-29T19:12:54.091Z,12.30
2023-04-29T19:15:20.736Z,12.30
2023-04-29T19:17:47.409Z,12.30
2023-04-29T19:20:14.750Z,12.30
2023-04-29T19:22:41.729Z,12.30
2023-04-29T19:25:09.993Z,12.20
2023-04-29T19:27:40.390Z,12.20
2023-04-29T19:30:09.217Z,12.10
2023-04-29T19:32:37.810Z,12.20
2023-04-29T19:35:05.512Z,12.20
2023-04-29T19:37:32.138Z,12.10
2023-04-29T19:39:59.872Z,12.10
2023-04-29T19:42:27.099Z,12.10
2023-04-29T19:44:53.930Z,12.10
2023-04-29T19:47:24.705Z,12.10
2023-04-29T19:49:51.828Z,12.10
2023-04-29T19:52:19.828Z,12.10
2023-04-29T19:54:47.631Z,12.10
2023-04-29T19:57:14.392Z,12.10
2023-04-29T19:59:41.968Z,12.10
2023-04-29T20:02:09.838Z,12.10
2023-04-29T20:04:40.322Z,12.10
2023-04-29T20:07:07.969Z,12.10
2023-04-29T20:09:41.138Z,12.10
2023-04-29T20:12:07.802Z,12.00
2023-04-29T20:14:34.542Z,12.00
2023-04-29T20:17:02.213Z,11.90
2023-04-29T20:22:19.877Z,11.90
2023-04-29T20:24:48.496Z,11.90
2023-04-29T20:27:17.358Z,11.90
2023-04-29T20:29:44.115Z,11.90
2023-04-29T20:32:13.359Z,11.90
2023-04-29T20:34:40.085Z,11.90
2023-04-29T20:37:11.810Z,11.90
2023-04-29T20:39:42.849Z,11.90
2023-04-29T20:42:09.489Z,11.90
2023-04-29T20:44:39.982Z,11.80
2023-04-29T20:47:07.269Z,11.80
2023-04-29T20:49:37.259Z,11.80
2023-04-29T20:52:06.260Z,11.80
2023-04-29T20:54:35.982Z,11.80
2023-04-29T20:57:05.478Z,11.80
2023-04-29T20:59:33.417Z,11.80
2023-04-29T21:02:00.283Z,11.80
2023-04-29T21:07:18.388Z,11.80
2023-04-29T21:09:45.357Z,11.80
2023-04-29T21:12:14.803Z,11.70
2023-04-29T21:14:42.646Z,11.70
2023-04-29T21:17:09.640Z,11.70
2023-04-29T21:19:37.514Z,11.70
2023-04-29T21:22:04.616Z,11.70
2023-04-29T21:24:31.511Z,11.60
2023-04-29T21:26:59.935Z,11.60
2023-04-29T21:29:26.631Z,11.50
2023-04-29T21:31:54.590Z,11.50
2023-04-29T21:34:24.233Z,11.50
2023-04-29T21:36:50.914Z,11.40
2023-04-29T21:42:09.632Z,11.40
2023-04-29T21:44:37.709Z,11.50
2023-04-29T21:47:04.606Z,11.50
2023-04-29T21:52:25.522Z,11.50
2023-04-29T21:54:52.231Z,11.40
2023-04-29T21:57:21.993Z,11.40
2023-04-29T21:59:53.251Z,11.40
2023-04-29T22:02:25.207Z,11.40
2023-04-29T22:04:57.020Z,11.40
2023-04-29T22:07:26.129Z,11.50
2023-04-29T22:09:53.931Z,11.40
2023-04-29T22:12:23.176Z,11.40
2023-04-29T22:14:50.355Z,11.40
2023-04-29T22:17:19.215Z,11.40
2023-04-29T22:25:28.734Z,11.30
2023-04-29T22:27:56.004Z,11.30
2023-04-29T22:30:26.202Z,11.20
2023-04-29T22:32:52.907Z,11.20
2023-04-29T22:35:22.207Z,11.30
2023-04-29T22:37:49.768Z,11.30
2023-04-29T22:40:16.438Z,11.30
2023-04-29T22:42:48.731Z,11.40
2023-04-29T22:45:15.578Z,11.40
2023-04-29T22:47:49.350Z,11.40
2023-04-29T22:50:18.221Z,11.40
2023-04-29T22:52:47.968Z,11.40
2023-04-29T22:55:14.708Z,11.40
2023-04-29T22:57:41.359Z,11.40
2023-04-29T23:00:08.592Z,11.40
2023-04-29T23:02:37.973Z,11.30
2023-04-29T23:05:05.922Z,11.30
2023-04-29T23:07:37.989Z,11.30
2023-04-29T23:10:05.202Z,11.30
2023-04-29T23:12:31.868Z,11.30
2023-04-29T23:14:58.580Z,11.30
2023-04-29T23:17:25.461Z,11.30
2023-04-29T23:19:54.642Z,11.30
2023-04-29T23:22:21.558Z,11.30
2023-04-29T23:24:48.725Z,11.30
2023-04-29T23:27:18.938Z,11.30
2023-04-29T23:29:45.642Z,11.30
2023-04-29T23:32:12.308Z,11.20
2023-04-29T23:34:42.525Z,11.20
2023-04-29T23:37:13.787Z,11.20
2023-04-29T23:39:40.377Z,11.20
2023-04-29T23:42:12.864Z,11.20
2023-04-29T23:44:42.548Z,11.20
2023-04-29T23:47:09.595Z,11.20
2023-04-29T23:49:36.220Z,11.20
2023-04-29T23:52:08.474Z,11.10
2023-04-29T23:54:35.126Z,11.10
2023-04-29T23:57:03.527Z,11.10
2023-04-29T23:59:30.155Z,11.00
